sensor_id;sensor_type;location;lat;lon;timestamp;P1;durP1;ratioP1;P2;durP2;ratioP2
76846;SDS011;65813;49.546;8.644;2023-02-15T05:17:57;25.48;;;8.57;;
76846;SDS011;65813;49.546;8.644;2023-02-15T05:21:58;22.43;;;8.23;;
76846;SDS011;65813;49.546;8.644;2023-02-15T05:25:58;26.70;;;9.77;;
76846;SDS011;65813;49.546;8.644;2023-02-15T05:30:17;24.52;;;7.95;;
76846;SDS011;65813;49.546;8.644;2023-02-15T05:34:18;24.02;;;8.82;;
76846;SDS011;65813;49.546;8.644;2023-02-15T05:38:18;18.50;;;7.80;;
76846;SDS011;65813;49.546;8.644;2023-02-15T05:42:18;19.33;;;7.97;;
76846;SDS011;65813;49.546;8.644;2023-02-15T05:46:19;16.93;;;7.27;;
76846;SDS011;65813;49.546;8.644;2023-02-15T05:50:19;19.03;;;8.10;;
76846;SDS011;65813;49.546;8.644;2023-02-15T05:54:19;19.67;;;7.60;;
76846;SDS011;65813;49.546;8.644;2023-02-15T05:58:20;16.87;;;7.43;;
76846;SDS011;65813;49.546;8.644;2023-02-15T06:02:20;19.52;;;8.48;;
76846;SDS011;65813;49.546;8.644;2023-02-15T06:06:20;23.37;;;9.07;;
76846;SDS011;65813;49.546;8.644;2023-02-15T06:10:21;21.92;;;8.48;;
76846;SDS011;65813;49.546;8.644;2023-02-15T06:14:21;24.00;;;9.80;;
76846;SDS011;65813;49.546;8.644;2023-02-15T06:18:22;26.23;;;9.68;;
76846;SDS011;65813;49.546;8.644;2023-02-15T06:22:23;23.43;;;8.67;;
76846;SDS011;65813;49.546;8.644;2023-02-15T06:26:23;22.93;;;8.73;;
76846;SDS011;65813;49.546;8.644;2023-02-15T06:30:23;23.23;;;7.93;;
76846;SDS011;65813;49.546;8.644;2023-02-15T06:34:24;21.73;;;8.83;;
76846;SDS011;65813;49.546;8.644;2023-02-15T06:38:24;17.43;;;7.47;;
76846;SDS011;65813;49.546;8.644;2023-02-15T06:42:24;17.53;;;7.80;;
76846;SDS011;65813;49.546;8.644;2023-02-15T06:46:25;22.58;;;9.95;;
76846;SDS011;65813;49.546;8.644;2023-02-15T06:50:25;22.30;;;10.82;;
76846;SDS011;65813;49.546;8.644;2023-02-15T06:54:26;21.10;;;8.70;;
76846;SDS011;65813;49.546;8.644;2023-02-15T06:58:26;18.23;;;9.13;;
76846;SDS011;65813;49.546;8.644;2023-02-15T07:02:26;17.90;;;8.03;;
76846;SDS011;65813;49.546;8.644;2023-02-15T07:06:30;21.33;;;9.77;;
76846;SDS011;65813;49.546;8.644;2023-02-15T07:10:31;22.65;;;8.77;;
76846;SDS011;65813;49.546;8.644;2023-02-15T07:14:32;22.40;;;9.43;;
76846;SDS011;65813;49.546;8.644;2023-02-15T07:18:32;24.73;;;10.37;;
76846;SDS011;65813;49.546;8.644;2023-02-15T07:22:32;24.77;;;9.13;;
76846;SDS011;65813;49.546;8.644;2023-02-15T07:26:33;30.40;;;12.77;;
76846;SDS011;65813;49.546;8.644;2023-02-15T07:30:34;20.90;;;9.73;;
76846;SDS011;65813;49.546;8.644;2023-02-15T07:34:35;20.42;;;9.13;;
76846;SDS011;65813;49.546;8.644;2023-02-15T07:38:36;24.23;;;10.50;;
76846;SDS011;65813;49.546;8.644;2023-02-15T07:42:37;23.67;;;9.52;;
76846;SDS011;65813;49.546;8.644;2023-02-15T07:46:38;23.77;;;9.60;;
76846;SDS011;65813;49.546;8.644;2023-02-15T07:50:38;21.80;;;8.97;;
76846;SDS011;65813;49.546;8.644;2023-02-15T07:54:38;23.10;;;8.40;;
76846;SDS011;65813;49.546;8.644;2023-02-15T07:58:39;23.05;;;9.73;;
76846;SDS011;65813;49.546;8.644;2023-02-15T08:02:51;23.45;;;8.77;;
76846;SDS011;65813;49.546;8.644;2023-02-15T08:07:12;23.20;;;10.02;;
76846;SDS011;65813;49.546;8.644;2023-02-15T08:11:17;28.37;;;10.07;;
76846;SDS011;65813;49.546;8.644;2023-02-15T08:15:25;29.52;;;11.50;;
76846;SDS011;65813;49.546;8.644;2023-02-15T08:19:27;29.10;;;11.17;;
76846;SDS011;65813;49.546;8.644;2023-02-15T08:23:34;29.17;;;11.13;;
76846;SDS011;65813;49.546;8.644;2023-02-15T08:27:34;29.30;;;11.57;;
76846;SDS011;65813;49.546;8.644;2023-02-15T08:31:35;28.47;;;10.53;;
76846;SDS011;65813;49.546;8.644;2023-02-15T08:35:37;30.83;;;12.65;;
76846;SDS011;65813;49.546;8.644;2023-02-15T08:39:37;30.02;;;11.02;;
76846;SDS011;65813;49.546;8.644;2023-02-15T08:43:38;28.63;;;11.93;;
76846;SDS011;65813;49.546;8.644;2023-02-15T08:47:38;36.85;;;13.23;;
76846;SDS011;65813;49.546;8.644;2023-02-15T08:51:39;33.03;;;11.77;;
76846;SDS011;65813;49.546;8.644;2023-02-15T08:55:39;28.58;;;11.25;;
76846;SDS011;65813;49.546;8.644;2023-02-15T08:59:40;31.80;;;11.67;;
76846;SDS011;65813;49.546;8.644;2023-02-15T09:03:40;35.53;;;12.30;;
76846;SDS011;65813;49.546;8.644;2023-02-15T09:07:40;32.87;;;13.00;;
76846;SDS011;65813;49.546;8.644;2023-02-15T09:11:42;28.87;;;11.43;;
76846;SDS011;65813;49.546;8.644;2023-02-15T09:15:44;32.92;;;11.95;;
76846;SDS011;65813;49.546;8.644;2023-02-15T09:19:44;35.53;;;14.00;;
76846;SDS011;65813;49.546;8.644;2023-02-15T09:23:45;31.13;;;13.23;;
76846;SDS011;65813;49.546;8.644;2023-02-15T09:27:47;37.88;;;15.13;;
76846;SDS011;65813;49.546;8.644;2023-02-15T09:31:48;41.53;;;14.03;;
76846;SDS011;65813;49.546;8.644;2023-02-15T09:35:50;33.95;;;14.05;;
76846;SDS011;65813;49.546;8.644;2023-02-15T09:39:50;40.97;;;14.90;;
76846;SDS011;65813;49.546;8.644;2023-02-15T09:43:55;37.00;;;14.50;;
76846;SDS011;65813;49.546;8.644;2023-02-15T09:48:30;33.85;;;13.98;;
76846;SDS011;65813;49.546;8.644;2023-02-15T09:52:44;32.75;;;13.63;;
76846;SDS011;65813;49.546;8.644;2023-02-15T10:05:58;34.22;;;13.15;;
76846;SDS011;65813;49.546;8.644;2023-02-15T10:10:22;29.35;;;13.02;;
76846;SDS011;65813;49.546;8.644;2023-02-15T10:23:08;35.67;;;14.25;;
76846;SDS011;65813;49.546;8.644;2023-02-15T10:27:25;34.67;;;11.98;;
76846;SDS011;65813;49.546;8.644;2023-02-15T10:57:01;30.73;;;12.77;;
76846;SDS011;65813;49.546;8.644;2023-02-15T11:01:34;31.65;;;13.48;;
76846;SDS011;65813;49.546;8.644;2023-02-15T11:10:19;29.50;;;12.70;;
76846;SDS011;65813;49.546;8.644;2023-02-15T11:18:34;26.23;;;12.25;;
76846;SDS011;65813;49.546;8.644;2023-02-15T11:22:39;34.50;;;14.65;;
76846;SDS011;65813;49.546;8.644;2023-02-15T11:26:47;27.80;;;11.25;;
76846;SDS011;65813;49.546;8.644;2023-02-15T11:39:36;32.03;;;14.07;;
76846;SDS011;65813;49.546;8.644;2023-02-15T11:47:48;34.05;;;13.77;;
76846;SDS011;65813;49.546;8.644;2023-02-15T11:51:49;36.20;;;14.55;;
76846;SDS011;65813;49.546;8.644;2023-02-15T11:55:51;30.75;;;13.85;;
76846;SDS011;65813;49.546;8.644;2023-02-15T12:00:02;34.40;;;14.10;;
76846;SDS011;65813;49.546;8.644;2023-02-15T12:08:37;30.73;;;14.40;;
76846;SDS011;65813;49.546;8.644;2023-02-15T12:12:40;30.70;;;13.85;;
76846;SDS011;65813;49.546;8.644;2023-02-15T12:20:49;31.75;;;14.45;;
76846;SDS011;65813;49.546;8.644;2023-02-15T12:24:50;33.53;;;14.75;;
76846;SDS011;65813;49.546;8.644;2023-02-15T12:28:55;39.95;;;14.88;;
76846;SDS011;65813;49.546;8.644;2023-02-15T12:41:22;33.55;;;13.20;;
76846;SDS011;65813;49.546;8.644;2023-02-15T12:45:26;35.45;;;15.13;;
76846;SDS011;65813;49.546;8.644;2023-02-15T12:49:32;41.28;;;15.63;;
76846;SDS011;65813;49.546;8.644;2023-02-15T12:53:35;38.53;;;16.42;;
76846;SDS011;65813;49.546;8.644;2023-02-15T12:57:36;33.60;;;14.00;;
76846;SDS011;65813;49.546;8.644;2023-02-15T13:01:36;40.37;;;15.37;;
76846;SDS011;65813;49.546;8.644;2023-02-15T13:05:37;39.15;;;16.25;;
76846;SDS011;65813;49.546;8.644;2023-02-15T13:09:40;35.92;;;15.65;;
76846;SDS011;65813;49.546;8.644;2023-02-15T13:18:25;39.53;;;17.60;;
76846;SDS011;65813;49.546;8.644;2023-02-15T13:22:38;41.75;;;17.13;;
76846;SDS011;65813;49.546;8.644;2023-02-15T13:26:42;42.00;;;17.17;;
76846;SDS011;65813;49.546;8.644;2023-02-15T13:30:47;37.78;;;16.23;;
76846;SDS011;65813;49.546;8.644;2023-02-15T13:34:49;40.35;;;16.33;;
76846;SDS011;65813;49.546;8.644;2023-02-15T13:39:03;39.40;;;17.48;;
76846;SDS011;65813;49.546;8.644;2023-02-15T13:47:26;39.05;;;16.48;;
76846;SDS011;65813;49.546;8.644;2023-02-15T13:51:45;33.20;;;16.55;;
76846;SDS011;65813;49.546;8.644;2023-02-15T13:56:06;38.80;;;18.15;;
76846;SDS011;65813;49.546;8.644;2023-02-15T14:00:35;37.22;;;17.95;;
76846;SDS011;65813;49.546;8.644;2023-02-15T14:09:19;34.85;;;15.45;;
76846;SDS011;65813;49.546;8.644;2023-02-15T14:22:10;41.95;;;18.00;;
76846;SDS011;65813;49.546;8.644;2023-02-15T14:26:21;39.03;;;17.70;;
76846;SDS011;65813;49.546;8.644;2023-02-15T14:30:41;40.97;;;17.50;;
76846;SDS011;65813;49.546;8.644;2023-02-15T14:34:48;38.88;;;17.80;;
76846;SDS011;65813;49.546;8.644;2023-02-15T14:48:19;41.47;;;17.67;;
76846;SDS011;65813;49.546;8.644;2023-02-15T14:52:21;43.75;;;17.95;;
76846;SDS011;65813;49.546;8.644;2023-02-15T14:56:22;49.67;;;19.27;;
76846;SDS011;65813;49.546;8.644;2023-02-15T15:00:34;41.95;;;17.10;;
76846;SDS011;65813;49.546;8.644;2023-02-15T15:04:39;39.47;;;17.70;;
76846;SDS011;65813;49.546;8.644;2023-02-15T15:08:43;35.97;;;17.17;;
76846;SDS011;65813;49.546;8.644;2023-02-15T15:12:44;37.23;;;16.60;;
76846;SDS011;65813;49.546;8.644;2023-02-15T15:16:47;36.65;;;17.05;;
76846;SDS011;65813;49.546;8.644;2023-02-15T15:20:49;36.25;;;17.08;;
76846;SDS011;65813;49.546;8.644;2023-02-15T15:24:54;43.13;;;19.13;;
76846;SDS011;65813;49.546;8.644;2023-02-15T15:28:56;41.10;;;17.27;;
76846;SDS011;65813;49.546;8.644;2023-02-15T15:32:59;35.45;;;16.60;;
76846;SDS011;65813;49.546;8.644;2023-02-15T15:49:56;40.15;;;18.23;;
76846;SDS011;65813;49.546;8.644;2023-02-15T15:53:58;41.42;;;19.58;;
76846;SDS011;65813;49.546;8.644;2023-02-15T15:58:02;48.60;;;19.35;;
76846;SDS011;65813;49.546;8.644;2023-02-15T16:02:05;40.60;;;18.23;;
76846;SDS011;65813;49.546;8.644;2023-02-15T16:06:11;37.80;;;17.98;;
76846;SDS011;65813;49.546;8.644;2023-02-15T16:14:38;38.75;;;18.55;;
76846;SDS011;65813;49.546;8.644;2023-02-15T16:18:40;41.28;;;18.73;;
76846;SDS011;65813;49.546;8.644;2023-02-15T16:22:42;40.30;;;19.10;;
76846;SDS011;65813;49.546;8.644;2023-02-15T16:31:16;39.65;;;18.02;;
76846;SDS011;65813;49.546;8.644;2023-02-15T16:35:17;42.75;;;19.20;;
76846;SDS011;65813;49.546;8.644;2023-02-15T16:39:19;44.85;;;20.20;;
76846;SDS011;65813;49.546;8.644;2023-02-15T16:43:29;45.33;;;20.75;;
76846;SDS011;65813;49.546;8.644;2023-02-15T16:47:33;42.60;;;20.42;;
76846;SDS011;65813;49.546;8.644;2023-02-15T16:51:39;48.63;;;22.02;;
76846;SDS011;65813;49.546;8.644;2023-02-15T16:55:43;46.33;;;21.13;;
76846;SDS011;65813;49.546;8.644;2023-02-15T16:59:50;43.88;;;19.83;;
76846;SDS011;65813;49.546;8.644;2023-02-15T17:04:10;44.22;;;19.45;;
76846;SDS011;65813;49.546;8.644;2023-02-15T17:08:17;44.38;;;19.48;;
76846;SDS011;65813;49.546;8.644;2023-02-15T17:12:38;42.20;;;18.70;;
76846;SDS011;65813;49.546;8.644;2023-02-15T17:16:48;42.60;;;18.23;;
76846;SDS011;65813;49.546;8.644;2023-02-15T17:21:23;41.92;;;18.05;;
76846;SDS011;65813;49.546;8.644;2023-02-15T17:25:31;47.47;;;21.55;;
76846;SDS011;65813;49.546;8.644;2023-02-15T17:29:36;43.35;;;19.17;;
76846;SDS011;65813;49.546;8.644;2023-02-15T17:33:39;49.45;;;21.45;;
76846;SDS011;65813;49.546;8.644;2023-02-15T17:41:39;46.67;;;20.20;;
76846;SDS011;65813;49.546;8.644;2023-02-15T17:45:46;62.17;;;27.67;;
76846;SDS011;65813;49.546;8.644;2023-02-15T17:49:49;48.53;;;22.88;;
76846;SDS011;65813;49.546;8.644;2023-02-15T17:53:49;56.10;;;28.00;;
76846;SDS011;65813;49.546;8.644;2023-02-15T17:58:12;52.67;;;24.85;;
76846;SDS011;65813;49.546;8.644;2023-02-15T18:06:34;40.30;;;18.02;;
76846;SDS011;65813;49.546;8.644;2023-02-15T18:10:54;42.28;;;20.30;;
76846;SDS011;65813;49.546;8.644;2023-02-15T18:15:13;36.08;;;16.10;;
76846;SDS011;65813;49.546;8.644;2023-02-15T18:19:15;41.80;;;19.40;;
76846;SDS011;65813;49.546;8.644;2023-02-15T18:23:20;37.90;;;18.73;;
76846;SDS011;65813;49.546;8.644;2023-02-15T18:27:20;42.63;;;20.80;;
76846;SDS011;65813;49.546;8.644;2023-02-15T18:31:21;43.25;;;19.70;;
76846;SDS011;65813;49.546;8.644;2023-02-15T18:35:23;40.83;;;19.20;;
76846;SDS011;65813;49.546;8.644;2023-02-15T18:43:54;38.08;;;20.38;;
76846;SDS011;65813;49.546;8.644;2023-02-15T18:47:55;39.28;;;17.90;;
76846;SDS011;65813;49.546;8.644;2023-02-15T18:51:56;40.67;;;19.90;;
76846;SDS011;65813;49.546;8.644;2023-02-15T18:55:56;37.67;;;18.70;;
76846;SDS011;65813;49.546;8.644;2023-02-15T18:59:56;38.30;;;19.60;;
76846;SDS011;65813;49.546;8.644;2023-02-15T19:03:57;41.43;;;19.83;;
76846;SDS011;65813;49.546;8.644;2023-02-15T19:07:57;43.50;;;20.97;;
76846;SDS011;65813;49.546;8.644;2023-02-15T19:11:59;47.42;;;20.52;;
76846;SDS011;65813;49.546;8.644;2023-02-15T19:16:00;43.43;;;19.40;;
76846;SDS011;65813;49.546;8.644;2023-02-15T19:20:00;43.57;;;20.80;;
76846;SDS011;65813;49.546;8.644;2023-02-15T19:24:02;39.70;;;19.87;;
76846;SDS011;65813;49.546;8.644;2023-02-15T19:28:14;40.03;;;19.05;;
76846;SDS011;65813;49.546;8.644;2023-02-15T19:32:17;37.65;;;17.92;;
76846;SDS011;65813;49.546;8.644;2023-02-15T19:36:17;39.00;;;17.90;;
76846;SDS011;65813;49.546;8.644;2023-02-15T19:40:22;40.65;;;19.27;;
76846;SDS011;65813;49.546;8.644;2023-02-15T19:44:24;42.33;;;20.00;;
76846;SDS011;65813;49.546;8.644;2023-02-15T19:48:24;37.57;;;17.93;;
76846;SDS011;65813;49.546;8.644;2023-02-15T19:52:25;32.42;;;16.65;;
76846;SDS011;65813;49.546;8.644;2023-02-15T19:56:25;34.97;;;17.38;;
76846;SDS011;65813;49.546;8.644;2023-02-15T20:00:27;41.10;;;18.58;;
76846;SDS011;65813;49.546;8.644;2023-02-15T20:04:30;44.47;;;18.40;;
76846;SDS011;65813;49.546;8.644;2023-02-15T20:08:30;38.83;;;18.80;;
76846;SDS011;65813;49.546;8.644;2023-02-15T20:12:31;40.13;;;17.73;;
76846;SDS011;65813;49.546;8.644;2023-02-15T20:16:31;36.20;;;17.20;;
76846;SDS011;65813;49.546;8.644;2023-02-15T20:20:41;35.63;;;16.10;;
76846;SDS011;65813;49.546;8.644;2023-02-15T20:24:45;38.13;;;16.83;;
76846;SDS011;65813;49.546;8.644;2023-02-15T20:28:45;38.50;;;16.97;;
76846;SDS011;65813;49.546;8.644;2023-02-15T20:32:47;38.25;;;17.60;;
76846;SDS011;65813;49.546;8.644;2023-02-15T20:36:48;34.05;;;16.42;;
76846;SDS011;65813;49.546;8.644;2023-02-15T20:40:48;35.47;;;17.48;;
76846;SDS011;65813;49.546;8.644;2023-02-15T20:45:21;31.88;;;16.27;;
76846;SDS011;65813;49.546;8.644;2023-02-15T20:49:26;35.10;;;17.73;;
76846;SDS011;65813;49.546;8.644;2023-02-15T20:53:27;36.35;;;17.25;;
76846;SDS011;65813;49.546;8.644;2023-02-15T20:57:28;31.92;;;16.25;;
76846;SDS011;65813;49.546;8.644;2023-02-15T21:01:28;36.93;;;17.10;;
76846;SDS011;65813;49.546;8.644;2023-02-15T21:05:29;35.37;;;16.70;;
76846;SDS011;65813;49.546;8.644;2023-02-15T21:09:34;33.50;;;15.57;;
76846;SDS011;65813;49.546;8.644;2023-02-15T21:13:34;36.17;;;16.47;;
76846;SDS011;65813;49.546;8.644;2023-02-15T21:17:35;39.27;;;18.50;;
76846;SDS011;65813;49.546;8.644;2023-02-15T21:21:35;43.00;;;18.43;;
76846;SDS011;65813;49.546;8.644;2023-02-15T21:25:35;37.13;;;17.50;;
76846;SDS011;65813;49.546;8.644;2023-02-15T21:29:36;37.88;;;16.67;;
76846;SDS011;65813;49.546;8.644;2023-02-15T21:33:36;31.97;;;14.63;;
76846;SDS011;65813;49.546;8.644;2023-02-15T21:37:37;32.67;;;14.57;;
76846;SDS011;65813;49.546;8.644;2023-02-15T21:41:38;34.28;;;16.30;;
76846;SDS011;65813;49.546;8.644;2023-02-15T21:46:00;33.88;;;15.25;;
76846;SDS011;65813;49.546;8.644;2023-02-15T21:50:29;29.45;;;14.52;;
76846;SDS011;65813;49.546;8.644;2023-02-15T21:54:48;32.45;;;14.98;;
76846;SDS011;65813;49.546;8.644;2023-02-15T21:58:48;33.77;;;15.93;;
76846;SDS011;65813;49.546;8.644;2023-02-15T22:02:53;35.37;;;16.73;;
76846;SDS011;65813;49.546;8.644;2023-02-15T22:06:55;33.55;;;14.70;;
76846;SDS011;65813;49.546;8.644;2023-02-15T22:10:55;29.50;;;14.63;;
76846;SDS011;65813;49.546;8.644;2023-02-15T22:14:56;30.52;;;13.90;;
